Time;durP1;ratioP1;P1;durP2;ratioP2;P2;SDS_P1;SDS_P2;PMS_P1;PMS_P2;Temp;Humidity;BMP_temperature;BMP_pressure;BME280_temperature;BME280_humidity;BME280_pressure;Samples;Min_cycle;Max_cycle;Signal;HPM_P1;HPM_P2
2022/07/26 00:01:15;;;;;;;5.10;3.20;;;19.20;99.90;;;;;;5086355;28;20205;-50
2022/07/26 00:03:44;;;;;;;5.75;3.50;;;19.10;99.90;;;;;;5088811;28;20244;-51
2022/07/26 00:06:12;;;;;;;5.15;3.30;;;19.10;99.90;;;;;;5087956;28;20717;-51
2022/07/26 00:08:40;;;;;;;5.97;3.70;;;19.20;99.90;;;;;;5083875;28;20209;-51
2022/07/26 00:11:08;;;;;;;6.80;3.38;;;19.20;99.90;;;;;;5087294;28;20258;-51
2022/07/26 00:13:36;;;;;;;5.32;3.50;;;19.20;99.90;;;;;;5092190;28;20262;-52
2022/07/26 00:16:05;;;;;;;7.05;3.40;;;19.20;99.90;;;;;;5092496;28;20232;-51
2022/07/26 00:18:34;;;;;;;4.55;3.15;;;19.20;99.90;;;;;;5092460;28;20204;-50
2022/07/26 00:21:02;;;;;;;6.22;3.30;;;19.30;99.90;;;;;;5092793;28;20208;-51
2022/07/26 00:23:33;;;;;;;7.20;3.60;;;19.30;99.90;;;;;;5091977;28;20204;-50
2022/07/26 00:26:01;;;;;;;8.70;4.07;;;19.30;99.90;;;;;;5091822;28;20209;-52
2022/07/26 00:28:30;;;;;;;7.75;3.50;;;19.30;99.90;;;;;;5092012;28;20277;-51
2022/07/26 00:30:58;;;;;;;5.43;3.35;;;19.30;99.90;;;;;;5092746;28;20233;-51
2022/07/26 00:33:26;;;;;;;6.15;3.17;;;19.30;99.90;;;;;;5092549;28;20208;-51
2022/07/26 00:35:55;;;;;;;8.32;3.58;;;19.30;99.90;;;;;;5091713;28;20201;-51
2022/07/26 00:38:23;;;;;;;5.25;3.65;;;19.30;99.90;;;;;;5092329;28;20200;-51
2022/07/26 00:40:51;;;;;;;7.95;3.60;;;19.30;99.90;;;;;;5091977;28;20738;-51
2022/07/26 00:43:19;;;;;;;6.32;3.50;;;19.30;99.90;;;;;;5091816;28;20258;-51
2022/07/26 00:45:49;;;;;;;6.22;3.70;;;19.40;99.90;;;;;;5079172;28;20209;-52
2022/07/26 00:48:18;;;;;;;5.95;3.60;;;19.40;99.90;;;;;;5092240;28;20224;-52
2022/07/26 00:50:47;;;;;;;8.82;4.05;;;19.40;99.90;;;;;;5091856;28;20247;-51
2022/07/26 00:53:19;;;;;;;4.07;3.22;;;19.40;99.90;;;;;;5091694;28;20209;-51
2022/07/26 00:55:48;;;;;;;7.85;3.20;;;19.30;99.90;;;;;;5091934;28;20273;-52
2022/07/26 00:58:17;;;;;;;6.50;3.70;;;19.40;99.90;;;;;;5091847;28;20250;-51
2022/07/26 01:00:45;;;;;;;6.13;3.10;;;19.40;99.90;;;;;;5091093;28;20269;-52
2022/07/26 01:03:14;;;;;;;4.90;3.15;;;19.40;99.90;;;;;;5091396;28;20265;-52
2022/07/26 01:05:42;;;;;;;6.07;3.20;;;19.40;99.90;;;;;;5091591;28;20273;-52
2022/07/26 01:08:10;;;;;;;7.07;3.38;;;19.40;99.90;;;;;;5090889;28;20663;-52
2022/07/26 01:10:40;;;;;;;5.57;3.08;;;19.40;99.90;;;;;;5091673;28;20209;-52
2022/07/26 01:13:08;;;;;;;4.95;3.13;;;19.50;99.90;;;;;;5091557;28;20269;-51
2022/07/26 01:15:36;;;;;;;6.57;2.90;;;19.50;99.90;;;;;;5091401;28;20212;-52
2022/07/26 01:18:04;;;;;;;6.40;3.33;;;19.50;99.90;;;;;;5072793;28;20218;-52
2022/07/26 01:20:32;;;;;;;5.32;3.30;;;19.50;99.90;;;;;;5068780;28;20635;-52
2022/07/26 01:23:02;;;;;;;7.03;2.80;;;19.50;99.90;;;;;;5054920;28;20335;-51
2022/07/26 01:25:31;;;;;;;3.83;2.88;;;19.40;99.90;;;;;;5069830;28;20254;-51
2022/07/26 01:28:10;;;;;;;6.97;3.00;;;19.40;99.90;;;;;;5057148;28;20227;-51
2022/07/26 01:30:47;;;;;;;5.65;2.90;;;19.40;99.90;;;;;;5076197;28;20241;-51
2022/07/26 01:33:15;;;;;;;6.63;3.00;;;19.50;99.90;;;;;;5090960;28;20208;-51
2022/07/26 01:35:43;;;;;;;7.07;3.45;;;19.50;99.90;;;;;;5090868;28;20257;-51
2022/07/26 01:38:13;;;;;;;6.05;3.30;;;19.50;99.90;;;;;;5090554;28;20193;-51
2022/07/26 01:40:41;;;;;;;7.28;3.30;;;19.50;99.90;;;;;;5091017;28;20245;-51
2022/07/26 01:43:09;;;;;;;6.03;3.20;;;19.40;99.90;;;;;;5090755;28;20746;-52
2022/07/26 01:45:37;;;;;;;4.25;3.00;;;19.40;99.90;;;;;;5082353;28;20261;-52
2022/07/26 01:48:07;;;;;;;5.63;3.05;;;19.40;99.90;;;;;;5090475;28;20232;-52
2022/07/26 01:50:36;;;;;;;4.25;2.63;;;19.40;99.90;;;;;;5090928;28;20257;-52
2022/07/26 01:53:04;;;;;;;6.22;3.13;;;19.40;99.90;;;;;;5090521;28;20208;-51
2022/07/26 01:55:35;;;;;;;4.65;3.00;;;19.40;99.90;;;;;;5090424;28;20294;-52
2022/07/26 01:58:04;;;;;;;8.45;3.17;;;19.40;99.90;;;;;;5090913;28;20293;-51
2022/07/26 02:00:32;;;;;;;6.07;3.10;;;19.40;99.90;;;;;;5090865;28;20204;-52
2022/07/26 02:03:00;;;;;;;4.70;3.00;;;19.40;99.90;;;;;;5078085;28;20743;-51
2022/07/26 02:05:29;;;;;;;5.97;2.67;;;19.40;99.90;;;;;;5090232;28;20749;-52
2022/07/26 02:07:57;;;;;;;5.95;2.83;;;19.40;99.90;;;;;;5089563;28;20282;-51
2022/07/26 02:10:59;;;;;;;8.70;3.00;;;19.40;99.90;;;;;;5090395;28;20208;-51
2022/07/26 02:13:18;;;;;;;6.50;2.90;;;19.40;99.90;;;;;;5090435;28;20200;-52
2022/07/26 02:15:46;;;;;;;7.18;3.00;;;19.40;99.90;;;;;;5089123;28;20209;-52
2022/07/26 02:18:14;;;;;;;5.68;2.88;;;19.40;99.90;;;;;;5090513;28;20196;-52
2022/07/26 02:20:42;;;;;;;4.13;2.53;;;19.40;99.90;;;;;;5087939;28;20208;-52
2022/07/26 02:23:11;;;;;;;7.95;2.55;;;19.40;99.90;;;;;;5085126;28;20245;-52
2022/07/26 02:25:39;;;;;;;4.13;2.60;;;19.40;99.90;;;;;;5090422;28;20212;-52
2022/07/26 02:28:07;;;;;;;7.97;2.35;;;19.40;99.90;;;;;;5090159;28;20220;-51
2022/07/26 02:30:37;;;;;;;4.07;2.80;;;19.40;99.90;;;;;;5088437;28;20212;-52
2022/07/26 02:33:06;;;;;;;5.70;2.45;;;19.40;99.90;;;;;;5089335;28;20204;-51
2022/07/26 02:35:34;;;;;;;5.22;2.40;;;19.30;99.90;;;;;;5090253;28;20281;-51
2022/07/26 02:38:03;;;;;;;8.50;2.85;;;19.30;99.90;;;;;;5088049;28;20712;-51
2022/07/26 02:40:31;;;;;;;3.45;2.28;;;19.30;99.90;;;;;;5076221;28;20204;-51
2022/07/26 02:42:59;;;;;;;6.50;2.45;;;19.20;99.90;;;;;;5089898;28;20265;-52
2022/07/26 02:45:27;;;;;;;5.13;2.30;;;19.20;99.90;;;;;;5087201;28;20209;-51
2022/07/26 02:47:57;;;;;;;7.00;2.60;;;19.20;99.90;;;;;;5080821;28;20780;-52
2022/07/26 02:50:27;;;;;;;6.15;2.30;;;19.20;99.90;;;;;;5089882;28;20200;-52
2022/07/26 02:52:56;;;;;;;8.32;2.40;;;19.10;99.90;;;;;;5089214;28;20207;-51
2022/07/26 02:55:25;;;;;;;5.25;2.30;;;19.10;99.90;;;;;;5089174;28;20212;-51
2022/07/26 02:57:54;;;;;;;4.65;2.35;;;19.10;99.90;;;;;;5090056;28;20285;-52
2022/07/26 03:00:24;;;;;;;6.03;2.63;;;19.10;99.90;;;;;;5089489;28;20313;-52
2022/07/26 03:02:52;;;;;;;4.88;2.30;;;19.10;99.90;;;;;;5079834;28;20223;-52
2022/07/26 03:05:22;;;;;;;4.22;2.40;;;19.10;99.90;;;;;;5089580;28;20208;-51
2022/07/26 03:07:50;;;;;;;3.03;2.30;;;19.10;99.90;;;;;;5089847;28;20232;-51
2022/07/26 03:10:18;;;;;;;7.43;2.80;;;19.10;99.90;;;;;;5090250;28;20281;-52
2022/07/26 03:12:46;;;;;;;4.18;2.28;;;19.10;99.90;;;;;;5089512;28;20258;-52
2022/07/26 03:15:14;;;;;;;5.35;2.35;;;19.10;99.90;;;;;;5090391;28;20609;-51
2022/07/26 03:17:42;;;;;;;6.95;2.17;;;19.10;99.90;;;;;;5089062;28;20224;-51
2022/07/26 03:20:12;;;;;;;3.35;2.15;;;19.10;99.90;;;;;;5090125;28;20265;-52
2022/07/26 03:22:41;;;;;;;6.10;2.25;;;19.10;99.90;;;;;;5087834;28;20200;-52
2022/07/26 03:25:09;;;;;;;5.45;2.50;;;19.10;99.90;;;;;;5089932;28;20208;-51
2022/07/26 03:27:41;;;;;;;3.78;2.28;;;19.10;99.90;;;;;;5089605;28;20289;-52
2022/07/26 03:30:12;;;;;;;4.32;2.20;;;19.10;99.90;;;;;;5089685;28;20224;-51
2022/07/26 03:32:40;;;;;;;3.40;1.73;;;19.10;99.90;;;;;;5089336;28;20254;-52
2022/07/26 03:35:09;;;;;;;5.00;2.10;;;19.00;99.90;;;;;;5089389;28;20261;-52
2022/07/26 03:37:37;;;;;;;3.53;2.05;;;19.00;99.90;;;;;;5088124;28;20321;-52
2022/07/26 03:40:15;;;;;;;4.05;2.10;;;19.00;99.90;;;;;;5089413;28;20210;-52
2022/07/26 03:42:44;;;;;;;8.57;2.20;;;19.00;99.90;;;;;;5089734;28;20205;-52
2022/07/26 03:45:13;;;;;;;4.63;2.13;;;19.00;99.90;;;;;;5082650;28;20207;-51
2022/07/26 03:47:42;;;;;;;5.47;1.92;;;19.00;99.90;;;;;;5072910;28;20236;-51
2022/07/26 03:50:12;;;;;;;5.07;2.05;;;19.00;99.90;;;;;;5072385;28;20228;-52
2022/07/26 03:52:40;;;;;;;3.80;2.00;;;19.00;99.90;;;;;;5072873;28;20208;-52
2022/07/26 03:57:57;;;;;;;2.67;1.80;;;18.90;99.90;;;;;;5072811;28;20220;-52
2022/07/26 04:00:25;;;;;;;4.72;2.05;;;19.00;99.90;;;;;;5072632;28;20731;-52
2022/07/26 04:02:53;;;;;;;4.65;2.10;;;18.90;99.90;;;;;;5072057;28;20258;-52
2022/07/26 04:05:21;;;;;;;4.93;2.00;;;18.90;99.90;;;;;;5073075;28;20775;-52
2022/07/26 04:07:53;;;;;;;3.60;2.22;;;18.80;99.90;;;;;;5072027;28;20232;-51
2022/07/26 04:10:22;;;;;;;3.67;2.25;;;18.90;99.90;;;;;;5072893;28;20241;-52
2022/07/26 04:12:58;;;;;;;3.28;1.70;;;18.90;99.90;;;;;;5071110;28;20296;-52
2022/07/26 04:15:26;;;;;;;4.90;2.20;;;18.90;99.90;;;;;;5070986;28;20270;-52
2022/07/26 04:17:54;;;;;;;3.45;2.10;;;18.90;99.90;;;;;;5078439;28;20229;-51
2022/07/26 04:20:22;;;;;;;3.60;2.00;;;18.90;99.90;;;;;;5064359;28;20209;-52
2022/07/26 04:22:50;;;;;;;4.18;1.92;;;18.90;99.90;;;;;;5061195;28;20214;-52
2022/07/26 04:25:19;;;;;;;5.75;2.38;;;18.90;99.90;;;;;;5069658;28;20259;-52
2022/07/26 04:27:47;;;;;;;3.33;2.10;;;18.90;99.90;;;;;;5072060;28;20729;-52
2022/07/26 04:30:16;;;;;;;6.13;2.28;;;18.80;99.90;;;;;;5070153;28;20270;-52
2022/07/26 04:32:45;;;;;;;4.93;2.22;;;18.80;99.90;;;;;;5060401;28;20213;-51
2022/07/26 04:35:15;;;;;;;4.60;1.90;;;18.80;99.90;;;;;;5072126;28;20263;-51
2022/07/26 04:37:44;;;;;;;4.53;1.80;;;19.20;99.90;;;;;;5070910;28;20229;-51
2022/07/26 04:40:16;;;;;;;4.03;1.70;;;20.20;99.90;;;;;;5071915;28;20205;-53
2022/07/26 04:42:49;;;;;;;3.38;1.90;;;21.00;99.90;;;;;;5071884;28;20739;-52
2022/07/26 04:45:18;;;;;;;5.68;2.03;;;21.60;99.90;;;;;;5072009;28;20209;-52
2022/07/26 04:47:49;;;;;;;6.00;2.15;;;22.10;99.90;;;;;;5051802;28;20230;-53
2022/07/26 04:50:18;;;;;;;4.28;1.88;;;22.60;99.90;;;;;;5064130;28;20709;-52
2022/07/26 04:52:46;;;;;;;3.28;1.88;;;22.90;99.90;;;;;;5070618;28;20654;-52
2022/07/26 04:55:14;;;;;;;4.80;2.05;;;23.30;99.90;;;;;;5072642;28;20200;-52
2022/07/26 04:57:43;;;;;;;3.58;1.83;;;23.70;99.90;;;;;;5071667;28;20290;-51
2022/07/26 05:00:16;;;;;;;2.90;1.70;;;23.80;99.90;;;;;;5071318;28;20208;-52
2022/07/26 05:02:52;;;;;;;3.10;1.70;;;23.70;99.90;;;;;;5070384;28;20200;-53
2022/07/26 05:05:21;;;;;;;2.88;1.52;;;24.00;99.90;;;;;;5071744;28;20687;-53
2022/07/26 05:07:50;;;;;;;6.00;2.00;;;24.40;99.90;;;;;;5070911;28;20236;-52
2022/07/26 05:10:19;;;;;;;4.22;1.90;;;24.80;99.90;;;;;;5071524;28;20224;-52
2022/07/26 05:12:48;;;;;;;3.00;2.03;;;25.20;99.90;;;;;;5062849;28;20709;-52
2022/07/26 05:15:16;;;;;;;6.35;2.50;;;25.30;99.90;;;;;;5062131;28;20209;-52
2022/07/26 05:17:45;;;;;;;4.35;2.38;;;25.50;99.90;;;;;;5065983;28;20241;-52
2022/07/26 05:20:16;;;;;;;3.42;2.50;;;25.70;99.90;;;;;;5061384;28;20201;-50
2022/07/26 05:22:45;;;;;;;4.70;2.40;;;26.00;99.90;;;;;;5055281;28;20702;-52
2022/07/26 05:25:13;;;;;;;6.00;2.58;;;26.00;99.90;;;;;;5070430;28;20201;-52
2022/07/26 05:27:41;;;;;;;8.93;3.55;;;26.10;99.90;;;;;;5070982;28;20225;-52
2022/07/26 05:30:10;;;;;;;13.82;10.50;;;26.30;99.90;;;;;;5068300;28;20574;-53
2022/07/26 05:32:38;;;;;;;6.40;4.50;;;26.50;99.90;;;;;;5060299;28;20744;-52
2022/07/26 05:35:07;;;;;;;12.55;9.20;;;26.50;99.90;;;;;;5066916;28;20263;-52
2022/07/26 05:37:37;;;;;;;18.50;14.70;;;26.60;99.90;;;;;;5069176;28;20231;-52
2022/07/26 05:40:07;;;;;;;20.80;14.20;;;26.70;99.90;;;;;;5070212;28;20201;-53
2022/07/26 05:42:35;;;;;;;27.23;21.50;;;26.90;99.90;;;;;;5070772;28;20209;-52
2022/07/26 05:45:04;;;;;;;15.80;14.20;;;27.30;99.90;;;;;;5070746;28;20235;-53
2022/07/26 05:47:32;;;;;;;11.02;9.95;;;27.40;99.90;;;;;;5067213;28;20232;-52
2022/07/26 05:50:00;;;;;;;10.75;8.07;;;27.60;99.90;;;;;;5090305;28;20239;-52
2022/07/26 05:52:29;;;;;;;6.93;3.72;;;27.80;99.90;;;;;;5090385;28;20212;-53
2022/07/26 05:54:58;;;;;;;5.38;3.72;;;27.80;99.90;;;;;;5089954;28;20196;-52
2022/07/26 05:57:27;;;;;;;6.68;5.90;;;27.80;99.90;;;;;;5090582;28;20799;-53
2022/07/26 05:59:55;;;;;;;8.98;6.18;;;28.00;99.90;;;;;;5090920;28;20200;-52
2022/07/26 06:02:23;;;;;;;8.82;6.65;;;28.20;99.90;;;;;;5084689;28;20212;-52
2022/07/26 06:04:51;;;;;;;7.00;5.88;;;28.20;99.90;;;;;;5090479;28;20242;-53
2022/07/26 06:07:19;;;;;;;5.82;3.88;;;28.20;99.90;;;;;;5089689;28;20833;-52
2022/07/26 06:09:47;;;;;;;5.53;3.55;;;28.20;99.90;;;;;;5090526;28;20261;-52
2022/07/26 06:12:17;;;;;;;4.70;3.00;;;28.20;99.60;;;;;;5090735;28;20204;-52
2022/07/26 06:14:45;;;;;;;4.40;3.15;;;28.30;99.70;;;;;;5091189;28;20211;-52
2022/07/26 06:17:13;;;;;;;4.82;3.08;;;28.50;99.60;;;;;;5090102;28;20749;-53
2022/07/26 06:19:41;;;;;;;6.22;3.25;;;28.60;98.90;;;;;;5090448;28;20583;-52
2022/07/26 06:22:14;;;;;;;6.18;3.25;;;28.60;98.70;;;;;;5074361;28;20208;-52
2022/07/26 06:24:42;;;;;;;5.38;3.10;;;28.80;98.50;;;;;;5064311;28;20235;-51
2022/07/26 06:27:10;;;;;;;4.65;2.85;;;29.00;98.40;;;;;;5070240;28;20220;-52
2022/07/26 06:29:40;;;;;;;5.50;3.00;;;28.90;98.10;;;;;;5069753;28;20658;-52
2022/07/26 06:32:08;;;;;;;4.32;2.83;;;29.10;97.30;;;;;;5069792;28;20227;-52
2022/07/26 06:34:36;;;;;;;3.60;2.80;;;29.00;98.10;;;;;;5069520;28;20205;-52
2022/07/26 06:37:04;;;;;;;3.72;2.70;;;29.10;97.90;;;;;;5069271;28;20225;-53
2022/07/26 06:39:33;;;;;;;6.57;2.92;;;29.30;96.80;;;;;;5069841;28;20270;-51
2022/07/26 06:42:01;;;;;;;7.53;3.10;;;29.30;97.20;;;;;;5069343;28;20201;-52
2022/07/26 06:44:29;;;;;;;14.38;3.47;;;28.20;97.20;;;;;;5055417;28;20227;-52
2022/07/26 06:46:58;;;;;;;6.10;3.50;;;27.30;98.10;;;;;;5065440;28;20298;-52
2022/07/26 06:49:26;;;;;;;5.43;3.78;;;26.50;98.90;;;;;;5069490;28;20208;-51
2022/07/26 06:51:56;;;;;;;5.72;3.88;;;26.80;99.70;;;;;;5068002;28;20229;-51
2022/07/26 06:54:24;;;;;;;6.78;4.03;;;27.30;99.10;;;;;;5069590;28;20200;-52
2022/07/26 06:56:52;;;;;;;5.18;4.00;;;26.90;99.50;;;;;;5068115;28;20225;-52
2022/07/26 06:59:20;;;;;;;7.28;4.30;;;26.50;99.80;;;;;;5069542;28;20209;-53
2022/07/26 07:01:48;;;;;;;5.10;4.60;;;26.30;99.90;;;;;;5069291;28;20677;-52
2022/07/26 07:04:28;;;;;;;5.82;4.43;;;26.10;99.90;;;;;;5069193;28;20291;-52
2022/07/26 07:07:01;;;;;;;7.18;4.20;;;25.90;99.90;;;;;;5068172;28;20756;-51
2022/07/26 07:09:32;;;;;;;8.82;4.38;;;25.80;99.90;;;;;;5068835;28;20208;-52
2022/07/26 07:12:02;;;;;;;5.63;4.20;;;25.60;99.90;;;;;;5069697;28;20224;-52
2022/07/26 07:14:37;;;;;;;7.85;4.38;;;25.40;99.90;;;;;;5069031;28;20609;-52
2022/07/26 07:17:05;;;;;;;7.38;4.75;;;25.30;99.90;;;;;;5068730;28;20225;-52
2022/07/26 07:19:43;;;;;;;6.13;4.35;;;25.20;99.90;;;;;;5068793;28;20251;-52
2022/07/26 07:22:11;;;;;;;7.25;4.78;;;24.90;99.90;;;;;;5063575;28;20269;-52
2022/07/26 07:24:40;;;;;;;6.53;4.55;;;24.80;99.90;;;;;;5069041;28;20221;-52
2022/07/26 07:27:09;;;;;;;7.45;4.82;;;24.60;99.90;;;;;;5067908;28;20305;-53
2022/07/26 07:29:38;;;;;;;6.70;5.03;;;24.50;99.90;;;;;;5051773;28;20215;-52
2022/07/26 07:32:10;;;;;;;5.82;4.80;;;24.50;99.90;;;;;;5068504;28;20705;-52
2022/07/26 07:34:48;;;;;;;5.97;5.00;;;24.50;99.90;;;;;;5069113;28;20673;-52
2022/07/26 07:37:17;;;;;;;5.85;5.20;;;24.60;99.90;;;;;;5067715;28;20663;-52
2022/07/26 07:39:47;;;;;;;9.43;5.25;;;24.60;99.90;;;;;;5069757;28;20215;-52
2022/07/26 07:42:17;;;;;;;7.53;5.47;;;24.60;99.90;;;;;;5068038;28;20296;-52
2022/07/26 07:44:45;;;;;;;7.22;5.25;;;24.70;99.90;;;;;;5069104;28;20270;-52
2022/07/26 07:47:13;;;;;;;6.60;4.93;;;24.70;99.90;;;;;;5069089;28;20282;-52
2022/07/26 07:49:42;;;;;;;7.43;5.45;;;24.60;99.90;;;;;;5067990;28;20220;-52
2022/07/26 07:52:11;;;;;;;7.65;5.95;;;24.40;99.90;;;;;;5068408;28;20624;-53
2022/07/26 07:54:39;;;;;;;7.75;5.38;;;24.30;99.90;;;;;;5068493;28;20201;-52
2022/07/26 07:57:09;;;;;;;6.70;5.30;;;24.20;99.90;;;;;;5068863;28;20233;-52
2022/07/26 07:59:37;;;;;;;6.30;5.70;;;24.00;99.90;;;;;;5068415;28;20205;-52
2022/07/26 08:02:07;;;;;;;7.03;5.97;;;23.90;99.90;;;;;;5068793;28;20209;-52
2022/07/26 08:04:35;;;;;;;7.65;5.55;;;23.90;99.90;;;;;;5068951;28;20216;-52
2022/07/26 08:07:03;;;;;;;6.90;5.57;;;23.80;99.90;;;;;;5067966;28;20286;-52
2022/07/26 08:09:32;;;;;;;7.10;5.47;;;23.90;99.90;;;;;;5068777;28;20213;-52
2022/07/26 08:12:01;;;;;;;6.50;5.45;;;24.10;99.90;;;;;;5068561;28;20279;-52
2022/07/26 08:14:29;;;;;;;7.15;5.55;;;24.30;99.90;;;;;;5068874;28;20331;-52
2022/07/26 08:16:57;;;;;;;6.78;5.07;;;24.40;99.90;;;;;;5068204;28;20229;-52
2022/07/26 08:19:25;;;;;;;6.38;5.60;;;24.50;99.90;;;;;;5063086;28;20736;-52
2022/07/26 08:22:09;;;;;;;7.47;6.00;;;24.50;99.90;;;;;;5056855;28;20659;-52
2022/07/26 08:24:39;;;;;;;8.00;5.45;;;24.80;99.90;;;;;;5062309;28;20228;-53
2022/07/26 08:27:07;;;;;;;6.25;5.15;;;24.80;99.90;;;;;;5068927;28;20217;-52
2022/07/26 08:29:35;;;;;;;13.25;5.90;;;24.80;99.90;;;;;;5066754;28;20212;-52
2022/07/26 08:32:03;;;;;;;6.93;5.80;;;24.70;99.90;;;;;;5072589;28;21071;-51
2022/07/26 08:34:32;;;;;;;10.05;5.40;;;24.50;99.90;;;;;;5072593;28;20209;-53
2022/07/26 08:37:00;;;;;;;7.85;5.85;;;24.30;99.90;;;;;;5070921;28;20221;-52
2022/07/26 08:39:47;;;;;;;8.15;6.20;;;24.30;99.90;;;;;;5071220;28;20236;-52
2022/07/26 08:42:16;;;;;;;6.25;5.18;;;24.40;99.90;;;;;;5070760;28;20678;-52
2022/07/26 08:44:50;;;;;;;7.38;5.90;;;24.40;99.90;;;;;;5072028;28;20265;-51
2022/07/26 08:47:20;;;;;;;7.68;5.30;;;24.30;99.90;;;;;;5071961;28;20224;-52
2022/07/26 08:50:09;;;;;;;10.25;6.28;;;24.50;99.90;;;;;;5071992;28;20666;-52
2022/07/26 08:52:39;;;;;;;11.80;5.63;;;24.60;99.90;;;;;;5057202;28;20279;-52
2022/07/26 08:55:10;;;;;;;9.13;5.45;;;24.50;99.90;;;;;;5072404;28;20217;-52
2022/07/26 08:57:38;;;;;;;6.22;5.45;;;24.80;99.90;;;;;;5071929;28;20305;-52
2022/07/26 09:00:17;;;;;;;7.63;5.78;;;24.90;99.90;;;;;;5072346;28;20270;-52
2022/07/26 09:02:46;;;;;;;15.65;7.22;;;25.00;99.90;;;;;;5070845;28;20232;-53
2022/07/26 09:05:14;;;;;;;13.27;6.65;;;25.10;99.90;;;;;;5071934;28;20273;-52
2022/07/26 09:07:44;;;;;;;10.45;5.65;;;25.40;99.90;;;;;;5069528;28;20294;-52
2022/07/26 09:10:15;;;;;;;6.78;5.65;;;25.50;99.90;;;;;;5061716;28;20209;-52
2022/07/26 09:12:44;;;;;;;6.95;5.65;;;25.50;99.90;;;;;;5070436;28;20223;-53
2022/07/26 09:15:24;;;;;;;11.10;6.22;;;25.40;99.90;;;;;;5071632;28;20204;-51
2022/07/26 09:17:55;;;;;;;9.30;6.72;;;25.30;99.90;;;;;;5070435;28;20228;-52
2022/07/26 09:20:25;;;;;;;8.15;6.30;;;25.20;99.90;;;;;;5071166;28;20282;-52
2022/07/26 09:23:04;;;;;;;7.95;6.13;;;25.20;99.90;;;;;;5057636;28;20310;-52
2022/07/26 09:25:36;;;;;;;7.80;6.82;;;25.30;99.90;;;;;;5063867;28;20246;-52
2022/07/26 09:28:20;;;;;;;9.73;7.20;;;25.40;99.90;;;;;;5065001;28;20228;-52
2022/07/26 09:30:52;;;;;;;9.00;7.55;;;25.30;99.90;;;;;;5070656;28;20204;-53
2022/07/26 09:33:20;;;;;;;7.68;6.97;;;25.30;99.90;;;;;;5071063;28;20278;-51
2022/07/26 09:36:01;;;;;;;11.80;7.82;;;25.30;99.90;;;;;;5070860;28;20217;-52
2022/07/26 09:38:39;;;;;;;10.05;8.10;;;25.10;99.90;;;;;;5070386;28;20205;-52
2022/07/26 09:41:19;;;;;;;10.98;8.30;;;25.30;99.90;;;;;;5071305;28;20212;-51
2022/07/26 09:43:47;;;;;;;8.38;7.57;;;25.60;99.90;;;;;;5070803;28;20658;-53
2022/07/26 09:46:21;;;;;;;9.95;8.32;;;25.90;99.90;;;;;;5069918;28;20370;-52
2022/07/26 09:48:49;;;;;;;13.00;7.50;;;26.10;99.90;;;;;;5070731;28;20208;-52
2022/07/26 09:51:40;;;;;;;8.85;7.43;;;26.20;99.90;;;;;;5070441;28;20299;-52
2022/07/26 09:54:09;;;;;;;8.52;7.40;;;25.90;99.90;;;;;;5057506;28;20673;-52
2022/07/26 09:56:47;;;;;;;9.95;7.60;;;25.70;99.90;;;;;;5070814;28;20772;-52
2022/07/26 09:59:17;;;;;;;8.82;7.20;;;25.50;99.90;;;;;;5070652;28;20270;-52
2022/07/26 10:01:46;;;;;;;8.13;6.90;;;25.50;99.90;;;;;;5070345;28;20212;-52
2022/07/26 10:04:15;;;;;;;9.50;6.88;;;25.70;99.90;;;;;;5070556;28;20293;-52
2022/07/26 10:06:44;;;;;;;9.35;6.65;;;26.00;99.90;;;;;;5070133;28;20290;-52
2022/07/26 10:09:13;;;;;;;7.60;6.13;;;26.10;99.90;;;;;;5066708;28;20209;-53
2022/07/26 10:11:44;;;;;;;7.68;6.20;;;25.90;99.90;;;;;;5069472;28;20373;-52
2022/07/26 10:14:37;;;;;;;6.93;5.85;;;26.00;99.90;;;;;;5070067;28;20209;-52
2022/07/26 10:17:44;;;;;;;6.35;5.30;;;26.40;99.90;;;;;;5066177;28;20225;-53
2022/07/26 10:20:42;;;;;;;6.18;5.53;;;26.60;99.90;;;;;;5089664;28;20204;-52
2022/07/26 10:23:39;;;;;;;7.82;5.90;;;26.50;99.90;;;;;;5058970;28;20202;-52
2022/07/26 10:26:09;;;;;;;7.03;5.65;;;26.30;99.90;;;;;;5056097;28;20607;-53
2022/07/26 10:28:39;;;;;;;9.93;6.20;;;26.40;99.90;;;;;;5069856;28;20299;-52
2022/07/26 10:31:29;;;;;;;9.07;5.88;;;26.50;99.90;;;;;;5070694;28;20262;-51
2022/07/26 10:33:59;;;;;;;7.07;5.72;;;26.90;99.90;;;;;;5055226;28;20225;-52
2022/07/26 10:36:34;;;;;;;8.35;6.35;;;26.80;99.90;;;;;;5069832;28;20282;-52
2022/07/26 10:39:08;;;;;;;7.75;5.82;;;26.50;99.90;;;;;;5069549;28;20200;-53
2022/07/26 10:41:40;;;;;;;8.18;6.70;;;26.20;99.90;;;;;;5069762;28;20269;-52
2022/07/26 10:44:27;;;;;;;9.63;7.90;;;26.10;99.90;;;;;;5069682;28;20266;-52
2022/07/26 10:47:15;;;;;;;6.85;6.15;;;25.90;99.90;;;;;;5069375;28;20582;-52
2022/07/26 10:49:53;;;;;;;8.07;6.45;;;26.00;99.90;;;;;;5068678;28;20243;-53
2022/07/26 10:52:24;;;;;;;8.45;6.20;;;26.00;99.90;;;;;;5068885;28;20270;-52
2022/07/26 10:55:13;;;;;;;9.10;6.60;;;26.10;99.90;;;;;;5069646;28;20273;-52
2022/07/26 10:57:43;;;;;;;7.82;6.55;;;26.10;99.90;;;;;;5055402;28;20630;-53
2022/07/26 11:00:23;;;;;;;6.80;6.10;;;26.20;99.90;;;;;;5069331;28;20208;-53
2022/07/26 11:03:00;;;;;;;5.65;5.15;;;26.00;99.90;;;;;;5066811;28;20679;-52
2022/07/26 11:05:30;;;;;;;6.57;5.60;;;26.00;99.90;;;;;;5069168;28;20209;-52
2022/07/26 11:08:03;;;;;;;5.90;3.55;;;26.10;99.90;;;;;;5054528;28;20232;-52
2022/07/26 11:10:35;;;;;;;4.00;3.60;;;26.30;99.90;;;;;;5069014;28;20208;-53
2022/07/26 11:13:15;;;;;;;5.78;4.10;;;26.60;99.90;;;;;;5068516;28;20270;-53
2022/07/26 11:15:46;;;;;;;6.63;4.40;;;26.70;99.90;;;;;;5068436;28;20234;-53
2022/07/26 11:18:23;;;;;;;4.70;4.03;;;26.80;99.90;;;;;;5068624;28;20205;-52
2022/07/26 11:20:54;;;;;;;6.35;4.72;;;26.90;99.50;;;;;;5069117;28;20208;-53
2022/07/26 11:23:33;;;;;;;6.40;4.63;;;26.80;99.30;;;;;;5054466;28;20193;-52
2022/07/26 11:26:19;;;;;;;5.57;5.00;;;26.90;98.60;;;;;;5068679;28;20669;-52
2022/07/26 11:28:57;;;;;;;5.85;4.22;;;27.00;99.90;;;;;;5054952;28;20212;-52
2022/07/26 11:31:37;;;;;;;4.55;4.13;;;26.90;99.50;;;;;;5072594;28;20710;-52
2022/07/26 11:34:23;;;;;;;6.05;5.45;;;26.90;99.50;;;;;;5058853;28;20224;-52
2022/07/26 11:36:53;;;;;;;6.50;5.90;;;26.80;99.50;;;;;;5069281;28;20274;-53
2022/07/26 11:39:22;;;;;;;6.93;4.88;;;26.80;99.80;;;;;;5061909;28;20682;-52
2022/07/26 11:41:56;;;;;;;5.32;4.40;;;27.00;99.70;;;;;;5051895;28;20689;-52
2022/07/26 11:44:25;;;;;;;5.40;3.95;;;27.00;98.20;;;;;;5069383;28;20674;-52
2022/07/26 11:46:54;;;;;;;4.60;4.20;;;26.90;98.10;;;;;;5068398;28;20236;-52
2022/07/26 11:49:26;;;;;;;6.22;4.05;;;26.80;99.10;;;;;;5089199;28;20204;-51
2022/07/26 11:52:14;;;;;;;4.60;4.10;;;26.80;98.30;;;;;;5089123;28;20247;-53
2022/07/26 11:54:52;;;;;;;4.38;3.40;;;26.80;97.80;;;;;;5088805;28;20830;-53
2022/07/26 11:57:21;;;;;;;5.13;3.83;;;26.80;97.30;;;;;;5088812;28;20239;-52
2022/07/26 11:59:50;;;;;;;6.75;3.90;;;26.80;96.80;;;;;;5088899;28;20212;-52
2022/07/26 12:02:20;;;;;;;6.55;3.70;;;26.60;97.10;;;;;;5077997;28;20220;-53
2022/07/26 12:04:49;;;;;;;4.90;3.70;;;26.50;96.90;;;;;;5093241;28;20222;-50
2022/07/26 12:07:20;;;;;;;4.32;3.70;;;26.50;96.30;;;;;;5085863;28;20236;-52
2022/07/26 12:09:51;;;;;;;7.50;3.92;;;26.40;98.00;;;;;;5073063;28;20209;-51
2022/07/26 12:12:21;;;;;;;5.05;4.30;;;26.50;97.60;;;;;;5078957;28;20204;-52
2022/07/26 12:14:57;;;;;;;5.50;4.70;;;26.50;98.30;;;;;;5064212;28;20709;-52
2022/07/26 12:17:25;;;;;;;7.05;4.20;;;26.40;98.30;;;;;;5084972;28;20285;-52
2022/07/26 12:20:13;;;;;;;6.15;5.15;;;26.40;98.50;;;;;;5087666;28;20205;-53
2022/07/26 12:22:41;;;;;;;7.93;5.32;;;26.30;98.80;;;;;;5063062;28;20209;-51
2022/07/26 12:25:09;;;;;;;6.13;5.38;;;26.40;99.50;;;;;;5070034;28;20197;-51
2022/07/26 12:27:45;;;;;;;8.88;5.68;;;26.20;99.70;;;;;;5071625;28;20274;-51
2022/07/26 12:30:16;;;;;;;8.48;5.63;;;26.20;99.90;;;;;;5071357;28;20205;-52
2022/07/26 12:32:47;;;;;;;6.68;5.07;;;26.20;99.90;;;;;;5071912;28;20556;-51
2022/07/26 12:35:24;;;;;;;5.60;4.85;;;26.10;99.90;;;;;;5071438;28;20240;-51
2022/07/26 12:37:53;;;;;;;5.35;4.88;;;26.10;99.90;;;;;;5071721;28;20646;-51
2022/07/26 12:40:23;;;;;;;6.57;4.82;;;26.00;99.90;;;;;;5070962;28;20208;-51
2022/07/26 12:42:56;;;;;;;6.55;5.25;;;25.90;99.70;;;;;;5071383;28;20211;-51
2022/07/26 12:45:30;;;;;;;7.28;4.53;;;25.90;99.90;;;;;;5070335;28;20254;-51
2022/07/26 12:48:00;;;;;;;5.10;4.43;;;26.10;99.90;;;;;;5064811;28;20225;-52
2022/07/26 12:50:31;;;;;;;6.35;5.00;;;26.20;99.50;;;;;;5070826;28;20197;-52
2022/07/26 12:53:01;;;;;;;6.32;4.80;;;26.30;99.50;;;;;;5071353;28;20692;-52
2022/07/26 12:55:29;;;;;;;4.40;4.00;;;26.40;99.60;;;;;;5071470;28;20736;-52
2022/07/26 12:57:58;;;;;;;4.22;3.83;;;26.60;99.00;;;;;;5072785;28;20225;-53
2022/07/26 13:00:27;;;;;;;5.18;4.03;;;26.60;99.40;;;;;;5072338;28;20350;-51
2022/07/26 13:02:57;;;;;;;6.43;4.47;;;26.80;99.40;;;;;;5071766;28;20204;-51
2022/07/26 13:05:26;;;;;;;7.15;4.60;;;27.00;99.30;;;;;;5072537;28;20200;-51
2022/07/26 13:07:55;;;;;;;5.13;4.63;;;27.00;98.70;;;;;;5071755;28;20248;-51